Home

Weather

KSLC Current Conditions

KSLC 191454Z 12006KT 10SM FEW200 M04/M07 A3033 RMK AO2 SLP289 T10391072 51008

KSLC Aviation Forecast

TAF AMD KSLC 191448Z 1915/2018 16005KT P6SM FEW200 FM191900 33006KT P6SM FEW200 FM200300 15006KT P6SM FEW200


25° F
Clear
Clear

Clear
Monday
Clear
High 46°/Low 24°
0%
Clear
Tuesday
Clear
High 48°/Low 27°
0%
Clear
Wednesday
Clear
High 57°/Low 38°
0%
Rain
Thursday
Rain
High 42°/Low 34°
70%
Rain
Friday
Rain
High 42°/Low 31°
90%
Snow Showers
Saturday
Snow Showers
High 36°/Low 20°
50%